KLYH/LYH METAR and TAF weather

Enter ICAO airport designator
Station Type Date Time Source
KLYH METAR 2021/09/24 04:54 UTC NOAA

KLYH 240454Z AUTO 00000KT 10SM CLR 09/07 A3005 RMK AO2 SLP172 T00940072 402220089


Station Type Date Time Source
KLYH Decoded METAR 2021/09/24 04:54 UTC NOAA

LYNCHBURG REGIONAL AIRPORT, VA, United States (KLYH) 37-19N 079-12W 295M
Sep 24, 2021 - 12:54 AM EDT / 2021.09.24 0454 UTC
Wind: Calm:0
Visibility: 10 mile(s):0
Sky conditions: clear
Temperature: 48.9 F (9.4 C)
Dew Point: 45.0 F (7.2 C)
Relative Humidity: 86%
Pressure (altimeter): 30.05 in. Hg (1017 hPa)
ob: KLYH 240454Z AUTO 00000KT 10SM CLR 09/07 A3005 RMK AO2 SLP172 T00940072 402220089
cycle: 5

Station Type Date Time Source
KLYH TAF 2021/09/23 18:22 UTC NOAA

TAF KLYH 231720Z 2318/2418 26008G16KT P6SM SCT050
FM232300 30003KT P6SM SKC

Example: see airport list